createdAt,value
2022-12-11T00:01:47.601Z,79.28
2022-12-11T00:04:36.353Z,80.29
2022-12-11T00:07:33.892Z,80.80
2022-12-11T00:10:13.856Z,81.00
2022-12-11T00:13:16.026Z,80.82
2022-12-11T00:16:00.666Z,80.65
2022-12-11T00:18:46.796Z,80.89
2022-12-11T00:21:29.810Z,79.85
2022-12-11T00:24:17.253Z,79.39
2022-12-11T00:27:03.405Z,79.34
2022-12-11T00:29:52.625Z,79.19
2022-12-11T00:32:44.783Z,78.74
2022-12-11T00:35:18.703Z,78.27
2022-12-11T00:37:58.944Z,78.01
2022-12-11T00:40:49.175Z,77.82
2022-12-11T00:43:36.113Z,78.09
2022-12-11T00:46:21.364Z,77.58
2022-12-11T00:49:09.688Z,77.46
2022-12-11T00:51:54.542Z,77.64
2022-12-11T00:54:42.712Z,78.11
2022-12-11T00:57:35.184Z,78.24
2022-12-11T01:00:24.113Z,78.18
2022-12-11T01:03:13.931Z,76.86
2022-12-11T01:06:13.300Z,77.43
2022-12-11T01:09:22.446Z,76.11
2022-12-11T01:12:08.967Z,73.92
2022-12-11T01:14:57.515Z,72.81
2022-12-11T01:17:44.195Z,72.58
2022-12-11T01:20:29.804Z,71.00
2022-12-11T01:23:20.116Z,69.79
2022-12-11T01:26:12.281Z,70.15
2022-12-11T01:29:04.861Z,68.91
2022-12-11T01:32:24.654Z,70.04
2022-12-11T01:35:03.916Z,68.09
2022-12-11T01:37:51.377Z,68.37
2022-12-11T01:40:33.380Z,69.10
2022-12-11T01:43:13.617Z,70.22
2022-12-11T01:46:09.079Z,69.46
2022-12-11T01:48:50.743Z,67.93
2022-12-11T01:51:44.189Z,66.07
2022-12-11T01:54:46.975Z,66.09
2022-12-11T01:57:39.285Z,64.57
2022-12-11T02:03:28.621Z,63.35
2022-12-11T02:06:26.660Z,64.24
2022-12-11T02:09:16.195Z,63.39
2022-12-11T02:12:24.699Z,63.55
2022-12-11T02:15:20.980Z,63.65
2022-12-11T02:18:20.585Z,62.69
2022-12-11T02:21:06.748Z,61.92
2022-12-11T02:24:31.354Z,61.68
2022-12-11T02:27:36.712Z,61.56
2022-12-11T02:30:26.270Z,60.97
2022-12-11T02:33:18.142Z,61.42
2022-12-11T02:36:18.983Z,60.91
2022-12-11T02:38:58.492Z,60.96
2022-12-11T02:41:47.775Z,60.43
2022-12-11T02:44:40.900Z,60.09
2022-12-11T02:47:52.770Z,59.00
2022-12-11T02:50:31.891Z,59.39
2022-12-11T02:53:23.208Z,59.65
2022-12-11T02:56:10.474Z,59.63
2022-12-11T02:58:58.632Z,59.42
2022-12-11T03:01:52.818Z,58.41
2022-12-11T03:04:52.975Z,58.28
2022-12-11T03:07:49.362Z,58.27
2022-12-11T03:10:42.844Z,57.27
2022-12-11T03:13:22.185Z,58.27
2022-12-11T03:19:30.000Z,58.58
2022-12-11T03:22:22.922Z,57.95
2022-12-11T03:25:02.096Z,57.82
2022-12-11T03:27:56.333Z,57.78
2022-12-11T03:30:36.713Z,57.55
2022-12-11T03:33:12.463Z,57.87
2022-12-11T03:35:50.541Z,58.20
2022-12-11T03:38:41.781Z,57.96
2022-12-11T03:41:22.764Z,58.63
2022-12-11T03:44:16.154Z,58.47
2022-12-11T03:47:05.732Z,58.57
2022-12-11T03:49:50.547Z,59.25
2022-12-11T03:52:28.310Z,61.82
2022-12-11T03:55:29.963Z,62.43
2022-12-11T03:58:18.402Z,64.97
2022-12-11T04:01:06.053Z,68.17
2022-12-11T04:03:43.601Z,68.45
2022-12-11T04:06:20.384Z,67.05
2022-12-11T04:09:03.394Z,66.85
2022-12-11T04:12:09.018Z,66.62
2022-12-11T04:15:09.019Z,65.50
2022-12-11T04:21:08.323Z,63.97
2022-12-11T04:24:07.163Z,63.95
2022-12-11T04:27:00.152Z,63.83
2022-12-11T04:29:42.122Z,63.49
2022-12-11T04:32:23.826Z,63.45
2022-12-11T04:35:14.818Z,63.74
2022-12-11T04:38:05.874Z,62.48
2022-12-11T04:40:43.790Z,62.72
2022-12-11T04:43:45.490Z,62.85
2022-12-11T04:46:42.103Z,63.37
2022-12-11T04:52:14.381Z,63.74
2022-12-11T04:55:01.304Z,60.23
2022-12-11T04:57:47.151Z,60.23
2022-12-11T05:00:41.156Z,60.13
2022-12-11T05:03:35.825Z,58.68
2022-12-11T05:06:15.423Z,58.15
2022-12-11T05:08:53.336Z,58.77
2022-12-11T05:11:37.849Z,59.05
2022-12-11T05:14:24.797Z,59.70
2022-12-11T05:17:29.123Z,60.27
2022-12-11T05:26:10.161Z,60.47
2022-12-11T05:28:44.916Z,60.86
2022-12-11T05:31:38.885Z,60.59
2022-12-11T05:34:33.034Z,59.14
2022-12-11T05:37:18.014Z,58.08
2022-12-11T05:39:57.189Z,58.03
2022-12-11T05:42:43.126Z,57.91
2022-12-11T05:45:29.254Z,58.17
2022-12-11T05:48:12.569Z,57.76
2022-12-11T05:51:11.465Z,57.99
2022-12-11T05:53:55.604Z,58.17
2022-12-11T05:56:43.722Z,58.37
2022-12-11T05:59:36.835Z,58.44
2022-12-11T06:02:33.673Z,59.23
2022-12-11T06:05:20.812Z,60.15
2022-12-11T06:08:05.470Z,60.69
2022-12-11T06:10:48.165Z,61.80
2022-12-11T06:13:21.116Z,62.85
2022-12-11T06:16:06.604Z,63.57
2022-12-11T06:19:10.843Z,63.71
2022-12-11T06:27:47.167Z,64.63
2022-12-11T06:33:27.771Z,65.40
2022-12-11T06:36:25.869Z,65.54
2022-12-11T06:42:03.612Z,63.88
2022-12-11T06:44:42.464Z,63.84
2022-12-11T06:47:36.263Z,63.20
2022-12-11T06:53:32.955Z,62.74
2022-12-11T06:56:13.220Z,63.26
2022-12-11T06:58:50.558Z,63.06
2022-12-11T07:04:33.491Z,63.19
2022-12-11T07:07:30.914Z,63.26
2022-12-11T07:13:17.697Z,63.40
2022-12-11T07:16:18.969Z,63.53
2022-12-11T07:19:12.521Z,64.48
2022-12-11T07:21:59.140Z,64.36
2022-12-11T07:24:54.000Z,64.38
2022-12-11T07:31:00.839Z,65.03
2022-12-11T07:33:59.232Z,64.62
2022-12-11T07:36:34.895Z,64.66
2022-12-11T07:39:18.480Z,65.12
2022-12-11T07:42:06.943Z,65.26
2022-12-11T07:44:48.378Z,65.00
2022-12-11T07:47:46.157Z,65.34
2022-12-11T07:50:40.780Z,66.16
2022-12-11T07:53:29.191Z,66.04
2022-12-11T07:56:18.507Z,65.66
2022-12-11T07:59:10.565Z,66.50
2022-12-11T08:01:55.263Z,66.35
2022-12-11T08:04:44.985Z,65.99
2022-12-11T08:07:56.136Z,66.08
2022-12-11T08:10:47.159Z,65.96
2022-12-11T08:13:51.472Z,66.90
2022-12-11T08:19:41.104Z,68.31
2022-12-11T08:22:34.384Z,68.74
2022-12-11T08:25:38.993Z,68.76
2022-12-11T08:28:24.848Z,69.34
2022-12-11T08:31:16.168Z,69.91
2022-12-11T08:36:50.780Z,71.15
2022-12-11T08:39:29.605Z,71.16
2022-12-11T08:42:13.999Z,71.17
2022-12-11T08:45:01.455Z,71.60
2022-12-11T08:48:05.790Z,72.07
2022-12-11T08:51:09.643Z,71.63
2022-12-11T08:53:56.186Z,71.75
2022-12-11T08:56:57.729Z,72.63
2022-12-11T09:00:11.481Z,73.09
2022-12-11T09:02:49.309Z,73.11
2022-12-11T09:05:39.809Z,72.75
2022-12-11T09:08:30.473Z,72.46
2022-12-11T09:11:13.885Z,73.20
2022-12-11T09:14:07.225Z,73.78
2022-12-11T09:17:04.926Z,74.37
2022-12-11T09:26:09.695Z,74.52
2022-12-11T09:28:52.942Z,73.92
2022-12-11T09:31:45.327Z,73.72
2022-12-11T09:34:33.985Z,74.07
2022-12-11T09:37:12.689Z,74.55
2022-12-11T09:40:05.709Z,74.37
2022-12-11T09:43:02.191Z,74.16
2022-12-11T09:45:47.326Z,74.14
2022-12-11T09:48:32.846Z,74.18
2022-12-11T09:58:36.303Z,74.37
2022-12-11T10:01:36.323Z,74.92
2022-12-11T10:05:02.988Z,75.04
2022-12-11T10:08:15.026Z,75.55
2022-12-11T10:11:22.999Z,75.61
2022-12-11T10:14:15.903Z,75.58
2022-12-11T10:16:54.764Z,75.57
2022-12-11T10:19:53.576Z,75.91
2022-12-11T10:22:53.049Z,76.20
2022-12-11T10:26:18.989Z,76.23
2022-12-11T10:28:57.065Z,76.17
2022-12-11T10:35:08.685Z,76.37
2022-12-11T10:38:05.186Z,76.40
2022-12-11T10:41:05.580Z,76.27
2022-12-11T10:43:54.873Z,76.67
2022-12-11T10:47:12.482Z,75.87
2022-12-11T10:53:18.625Z,75.08
2022-12-11T10:56:09.126Z,74.86
2022-12-11T10:58:59.593Z,74.50
2022-12-11T11:01:39.129Z,74.59
2022-12-11T11:10:52.049Z,75.27
2022-12-11T11:16:37.908Z,76.04
2022-12-11T11:19:53.452Z,76.61
2022-12-11T11:23:00.111Z,76.38
2022-12-11T11:26:00.268Z,76.19
2022-12-11T11:28:41.705Z,76.02
2022-12-11T11:31:34.247Z,76.67
2022-12-11T11:34:30.901Z,77.20
2022-12-11T11:37:20.481Z,77.93
2022-12-11T11:40:10.518Z,78.58
2022-12-11T11:42:52.421Z,78.32
2022-12-11T11:45:41.509Z,78.51
2022-12-11T11:48:40.650Z,78.33
2022-12-11T11:51:41.200Z,78.36
2022-12-11T11:54:44.909Z,78.41
2022-12-11T12:00:57.227Z,79.08
2022-12-11T12:03:46.447Z,79.78
2022-12-11T12:07:05.793Z,80.04
2022-12-11T12:10:11.814Z,80.59
2022-12-11T12:13:14.326Z,80.36
2022-12-11T12:16:50.438Z,79.38
2022-12-11T12:19:47.193Z,78.37
2022-12-11T12:22:45.854Z,78.49
2022-12-11T12:25:32.697Z,77.79
2022-12-11T12:31:51.645Z,78.04
2022-12-11T12:34:57.529Z,78.32
2022-12-11T12:38:03.306Z,78.26
2022-12-11T12:40:46.914Z,78.32
2022-12-11T12:49:49.548Z,78.29
2022-12-11T12:52:37.479Z,78.32
2022-12-11T12:58:41.974Z,76.55
2022-12-11T13:01:31.023Z,76.43
2022-12-11T13:04:47.416Z,76.83
2022-12-11T13:07:44.449Z,77.93
2022-12-11T13:10:42.764Z,78.77
2022-12-11T13:13:41.041Z,78.97
2022-12-11T13:16:37.352Z,79.35
2022-12-11T13:19:42.525Z,79.52
2022-12-11T13:22:41.431Z,79.56
2022-12-11T13:25:55.613Z,79.51
2022-12-11T13:29:13.408Z,79.42
2022-12-11T13:32:11.281Z,79.10
2022-12-11T13:35:11.203Z,78.70
2022-12-11T13:38:03.703Z,78.50
2022-12-11T13:41:14.471Z,79.07
2022-12-11T13:44:07.395Z,79.40
2022-12-11T13:49:43.044Z,79.58
2022-12-11T13:52:37.650Z,79.60
2022-12-11T13:55:42.032Z,79.04
2022-12-11T13:58:36.242Z,79.06
2022-12-11T14:01:30.773Z,78.87
2022-12-11T14:04:33.708Z,79.28
2022-12-11T14:10:22.272Z,78.16
2022-12-11T14:13:11.407Z,78.04
2022-12-11T14:16:12.155Z,77.92
2022-12-11T14:18:58.228Z,77.75
2022-12-11T14:21:39.737Z,77.51
2022-12-11T14:24:25.917Z,77.58
2022-12-11T14:27:37.019Z,77.73
2022-12-11T14:30:29.285Z,77.42
2022-12-11T14:33:25.939Z,77.63
2022-12-11T14:36:17.686Z,77.68
2022-12-11T14:39:07.832Z,76.82
2022-12-11T14:42:00.752Z,75.45
2022-12-11T14:44:58.796Z,75.05
2022-12-11T14:48:01.926Z,75.04
2022-12-11T14:50:58.125Z,74.39
2022-12-11T14:53:54.323Z,74.28
2022-12-11T14:56:35.077Z,74.00
2022-12-11T14:59:33.213Z,73.70
2022-12-11T15:02:37.745Z,74.20
2022-12-11T15:05:40.304Z,74.26
2022-12-11T15:08:57.428Z,75.46
2022-12-11T15:11:43.586Z,75.63
2022-12-11T15:14:27.878Z,75.62
2022-12-11T15:17:12.938Z,76.18
2022-12-11T15:23:12.807Z,77.35
2022-12-11T15:26:17.663Z,77.34
2022-12-11T15:29:16.743Z,76.97
2022-12-11T15:32:12.793Z,76.18
2022-12-11T15:34:58.490Z,76.00
2022-12-11T15:37:40.215Z,75.75
2022-12-11T15:40:30.060Z,74.97
2022-12-11T15:43:47.548Z,74.59
2022-12-11T15:46:29.054Z,74.84
2022-12-11T15:49:23.224Z,74.88
2022-12-11T15:52:03.404Z,74.75
2022-12-11T15:54:56.351Z,74.80
2022-12-11T15:57:34.652Z,75.31
2022-12-11T16:00:29.053Z,75.94
2022-12-11T16:03:16.047Z,74.96
2022-12-11T16:06:10.684Z,74.75
2022-12-11T16:12:08.741Z,74.31
2022-12-11T16:14:54.686Z,74.68
2022-12-11T16:17:54.814Z,74.95
2022-12-11T16:20:44.807Z,75.10
2022-12-11T16:23:29.325Z,74.79
2022-12-11T16:26:21.272Z,74.78
2022-12-11T16:29:16.883Z,74.84
2022-12-11T16:31:56.278Z,74.40
2022-12-11T16:35:11.564Z,74.43
2022-12-11T16:38:20.409Z,74.81
2022-12-11T16:41:14.735Z,75.11
2022-12-11T16:44:01.908Z,75.18
2022-12-11T16:46:56.581Z,75.33
2022-12-11T16:49:51.018Z,74.98
2022-12-11T16:53:01.763Z,75.18
2022-12-11T16:55:40.211Z,74.76
2022-12-11T16:58:20.913Z,74.74
2022-12-11T17:04:32.738Z,75.46
2022-12-11T17:07:17.790Z,76.05
2022-12-11T17:10:12.809Z,76.88
2022-12-11T17:13:07.648Z,77.18
2022-12-11T17:16:01.548Z,76.61
2022-12-11T17:18:39.939Z,75.39
2022-12-11T17:21:59.434Z,74.86
2022-12-11T17:24:53.914Z,74.66
2022-12-11T17:27:58.122Z,74.09
2022-12-11T17:30:37.951Z,73.12
2022-12-11T17:33:26.109Z,72.25
2022-12-11T17:36:10.205Z,71.20
2022-12-11T17:38:58.465Z,70.50
2022-12-11T17:41:47.140Z,71.10
2022-12-11T17:45:01.186Z,72.51
2022-12-11T17:47:47.575Z,73.69
2022-12-11T17:50:33.116Z,73.94
2022-12-11T17:53:19.882Z,74.44
2022-12-11T17:56:06.036Z,74.80
2022-12-11T17:58:56.805Z,74.86
2022-12-11T18:01:39.262Z,74.03
2022-12-11T18:04:27.035Z,74.22
2022-12-11T18:07:26.603Z,74.79
2022-12-11T18:10:23.686Z,75.52
2022-12-11T18:13:31.400Z,75.44
2022-12-11T18:16:46.665Z,74.85
2022-12-11T18:19:34.889Z,74.15
2022-12-11T18:22:17.643Z,74.01
2022-12-11T18:24:58.273Z,73.78
2022-12-11T18:27:38.746Z,74.22
2022-12-11T18:30:31.162Z,74.58
2022-12-11T18:33:25.823Z,75.02
2022-12-11T18:36:12.191Z,75.64
2022-12-11T18:39:00.039Z,75.72
2022-12-11T18:41:36.536Z,75.64
2022-12-11T18:44:23.204Z,75.46
2022-12-11T18:47:17.350Z,75.33
2022-12-11T18:50:11.835Z,75.68
2022-12-11T18:55:45.119Z,76.29
2022-12-11T18:58:40.141Z,76.18
2022-12-11T19:01:34.901Z,75.89
2022-12-11T19:04:19.187Z,74.35
2022-12-11T19:07:18.797Z,73.13
2022-12-11T19:10:17.481Z,71.73
2022-12-11T19:13:05.225Z,72.12
2022-12-11T19:15:43.496Z,72.92
2022-12-11T19:18:38.227Z,73.24
2022-12-11T19:21:23.488Z,74.65
2022-12-11T19:24:16.225Z,75.26
2022-12-11T19:26:53.280Z,75.21
2022-12-11T19:29:28.278Z,75.34
2022-12-11T19:32:05.073Z,74.75
2022-12-11T19:34:43.394Z,74.69
2022-12-11T19:37:46.189Z,74.51
2022-12-11T19:40:57.036Z,74.50
2022-12-11T19:43:37.408Z,74.18
2022-12-11T19:46:23.067Z,73.85
2022-12-11T19:49:06.559Z,73.41
2022-12-11T19:52:22.279Z,73.23
2022-12-11T19:55:25.319Z,74.36
2022-12-11T19:58:34.368Z,74.70
2022-12-11T20:01:38.310Z,74.04
2022-12-11T20:07:26.097Z,73.85
2022-12-11T20:10:06.248Z,73.76
2022-12-11T20:12:43.818Z,73.72
2022-12-11T20:15:55.105Z,73.30
2022-12-11T20:18:53.061Z,72.75
2022-12-11T20:21:52.249Z,73.15
2022-12-11T20:27:34.023Z,73.28
2022-12-11T20:30:19.024Z,73.45
2022-12-11T20:33:31.854Z,73.70
2022-12-11T20:36:49.295Z,74.30
2022-12-11T20:39:33.257Z,74.26
2022-12-11T20:42:28.771Z,73.88
2022-12-11T20:45:17.581Z,73.93
2022-12-11T20:47:54.629Z,74.33
2022-12-11T20:50:43.250Z,74.30
2022-12-11T20:53:36.019Z,74.34
2022-12-11T20:56:23.389Z,74.30
2022-12-11T21:02:52.575Z,73.67
2022-12-11T21:05:54.091Z,73.65
2022-12-11T21:08:48.265Z,73.01
2022-12-11T21:11:30.998Z,72.86
2022-12-11T21:14:12.268Z,73.46
2022-12-11T21:16:56.002Z,73.86
2022-12-11T21:19:58.824Z,73.05
2022-12-11T21:22:37.100Z,73.81
2022-12-11T21:25:38.691Z,73.52
2022-12-11T21:28:30.596Z,73.55
2022-12-11T21:31:29.952Z,73.51
2022-12-11T21:34:09.231Z,73.83
2022-12-11T21:37:03.973Z,74.22
2022-12-11T21:42:51.126Z,74.84
2022-12-11T21:46:00.497Z,74.16
2022-12-11T21:48:46.580Z,73.24
2022-12-11T21:51:47.240Z,73.19
2022-12-11T21:54:28.599Z,72.61
2022-12-11T21:57:43.434Z,72.43
2022-12-11T22:00:41.335Z,72.30
2022-12-11T22:06:14.548Z,72.80
2022-12-11T22:09:01.799Z,72.33
2022-12-11T22:11:47.394Z,71.91
2022-12-11T22:17:39.914Z,72.59
2022-12-11T22:20:26.869Z,73.36
2022-12-11T22:23:04.979Z,73.64
2022-12-11T22:29:01.781Z,73.84
2022-12-11T22:31:47.761Z,73.66
2022-12-11T22:34:41.737Z,73.67
2022-12-11T22:37:26.205Z,73.16
2022-12-11T22:40:07.790Z,72.94
2022-12-11T22:42:57.885Z,73.01
2022-12-11T22:45:41.917Z,72.61
2022-12-11T22:48:18.676Z,72.72
2022-12-11T22:57:02.035Z,74.63
2022-12-11T22:59:51.054Z,75.43
2022-12-11T23:02:53.952Z,75.41
2022-12-11T23:05:35.029Z,75.35
2022-12-11T23:08:36.643Z,75.67
2022-12-11T23:11:29.393Z,75.83
2022-12-11T23:14:15.351Z,76.13
2022-12-11T23:17:16.398Z,76.36
2022-12-11T23:19:55.388Z,75.47
2022-12-11T23:22:58.719Z,75.29
2022-12-11T23:25:45.093Z,75.26
2022-12-11T23:28:39.526Z,75.40
2022-12-11T23:31:30.477Z,75.18
2022-12-11T23:34:12.662Z,75.68
2022-12-11T23:36:53.117Z,76.49
2022-12-11T23:39:34.210Z,76.84
2022-12-11T23:42:43.772Z,76.28
2022-12-11T23:45:23.960Z,76.07
2022-12-11T23:48:19.351Z,75.77
2022-12-11T23:51:16.519Z,75.10
2022-12-11T23:54:11.291Z,75.30
2022-12-11T23:56:51.966Z,75.08
2022-12-11T23:59:43.528Z,74.10
